Disclaimer

Please do not use the information listed here in-flight or in-navigation, as they are not provided to us by the airports but are provided by volunteers, so they might be outdated.

Search


Regions


Airport information page

Radio informations:
Tower (TWR) - 118.7 MHz
Automatic Terminal Information Service (ATIS) - 131.35 MHz
Approach (APP) - 121.2 MHz

Airport informations:
Latitude: 55° 57' 00.00" N
Longitude: 003° 22' 21.00" W
Elevation: 135 feet - 41 meters
Operating hours: 24 hour operations
Operating agency: Civil government, landing fees and diplomatic clearance may be required
Timezone: UTC 0(+1DT) - Last Sunday in March to last Sunday in October
Fuel: Jet A1, without icing nhibitor.

100/130 MIL Spec, low lead, aviation gasoline (BLUE)

Runway information:
06/24 - 8400 x 150 feet< - >2560 x 46 meters
08/26 - 2621 x 150 feet< - >799 x 46 meters
12/30 - 5730 x 150 feet< - >1747 x 46 meters

Recent METARs:
EGPH 211850Z 06006KT CAVOK 04/M00 Q1019
EGPH 211920Z 12006KT 070V150 CAVOK 04/M00 Q1019
EGPH 211950Z 13009KT CAVOK 03/M00 Q1019

Airport on the map: